createdAt,value
2022-08-01T00:00:05.450Z,23.36
2022-08-01T00:02:32.377Z,23.15
2022-08-01T00:04:59.216Z,23.15
2022-08-01T00:07:25.607Z,23.26
2022-08-01T00:09:52.118Z,23.02
2022-08-01T00:12:18.711Z,22.77
2022-08-01T00:14:45.169Z,22.86
2022-08-01T00:17:11.586Z,22.97
2022-08-01T00:19:38.005Z,22.93
2022-08-01T00:22:04.777Z,22.88
2022-08-01T00:24:31.510Z,22.42
2022-08-01T00:26:57.900Z,22.09
2022-08-01T00:30:13.452Z,22.11
2022-08-01T00:32:10.903Z,22.19
2022-08-01T00:34:37.408Z,22.05
2022-08-01T00:37:03.889Z,22.23
2022-08-01T00:39:30.790Z,22.58
2022-08-01T00:41:59.919Z,23.12
2022-08-01T00:44:27.488Z,23.24
2022-08-01T00:46:53.985Z,23.15
2022-08-01T00:49:20.609Z,23.11
2022-08-01T00:51:47.229Z,23.00
2022-08-01T00:54:16.464Z,22.88
2022-08-01T00:56:44.540Z,22.81
2022-08-01T00:59:14.077Z,22.84
2022-08-01T01:01:46.504Z,22.92
2022-08-01T01:04:13.145Z,22.99
2022-08-01T01:07:02.467Z,22.96
2022-08-01T01:09:58.892Z,22.90
2022-08-01T01:12:52.681Z,22.96
2022-08-01T01:15:27.476Z,22.88
2022-08-01T01:17:59.021Z,22.78
2022-08-01T01:20:31.422Z,22.82
2022-08-01T01:23:20.384Z,22.74
2022-08-01T01:26:15.771Z,22.76
2022-08-01T01:29:07.095Z,22.75
2022-08-01T01:31:47.056Z,22.80
2022-08-01T01:34:16.150Z,22.77
2022-08-01T01:36:44.711Z,22.67
2022-08-01T01:39:12.241Z,22.72
2022-08-01T01:41:40.056Z,22.69
2022-08-01T01:44:07.472Z,22.75
2022-08-01T01:46:34.933Z,22.71
2022-08-01T01:49:02.645Z,22.74
2022-08-01T01:51:29.763Z,22.43
2022-08-01T01:53:57.684Z,22.08
2022-08-01T01:56:25.855Z,21.53
2022-08-01T01:59:01.619Z,21.27
2022-08-01T02:01:58.323Z,21.26
2022-08-01T02:04:17.651Z,20.98
2022-08-01T02:06:47.932Z,20.93
2022-08-01T02:09:20.385Z,21.02
2022-08-01T02:12:08.238Z,20.74
2022-08-01T02:14:36.430Z,20.91
2022-08-01T02:17:04.967Z,20.95
2022-08-01T02:19:31.877Z,20.88
2022-08-01T02:22:17.614Z,20.72
2022-08-01T02:25:00.143Z,20.83
2022-08-01T02:27:31.382Z,20.87
2022-08-01T02:30:06.917Z,20.84
2022-08-01T02:32:33.303Z,20.72
2022-08-01T02:35:02.218Z,20.90
2022-08-01T02:37:32.393Z,20.77
2022-08-01T02:40:00.841Z,20.89
2022-08-01T02:42:30.772Z,20.83
2022-08-01T02:44:58.172Z,20.82
2022-08-01T02:47:27.282Z,20.78
2022-08-01T02:49:56.435Z,20.75
2022-08-01T02:52:25.394Z,20.74
2022-08-01T02:54:55.427Z,20.66
2022-08-01T02:57:23.144Z,20.67
2022-08-01T02:59:56.967Z,20.72
2022-08-01T03:02:24.984Z,20.54
2022-08-01T03:04:56.961Z,20.56
2022-08-01T03:07:24.974Z,20.66
2022-08-01T03:10:01.991Z,20.35
2022-08-01T03:12:32.201Z,20.38
2022-08-01T03:15:01.583Z,20.30
2022-08-01T03:17:29.737Z,20.35
2022-08-01T03:19:59.841Z,20.25
2022-08-01T03:22:27.654Z,20.32
2022-08-01T03:24:54.939Z,20.43
2022-08-01T03:27:23.331Z,20.34
2022-08-01T03:29:51.338Z,20.32
2022-08-01T03:32:20.209Z,20.40
2022-08-01T03:34:47.489Z,20.03
2022-08-01T03:37:22.674Z,19.99
2022-08-01T03:39:53.183Z,19.91
2022-08-01T03:42:24.405Z,19.76
2022-08-01T03:44:57.858Z,19.65
2022-08-01T03:47:29.272Z,19.23
2022-08-01T03:49:58.691Z,19.18
2022-08-01T03:52:28.470Z,19.30
2022-08-01T03:54:57.219Z,19.45
2022-08-01T03:57:35.902Z,19.66
2022-08-01T04:00:08.115Z,19.71
2022-08-01T04:02:35.464Z,19.64
2022-08-01T04:05:03.324Z,19.87
2022-08-01T04:07:36.772Z,19.65
2022-08-01T04:10:04.374Z,19.76
2022-08-01T04:12:30.802Z,19.80
2022-08-01T04:14:57.305Z,19.56
2022-08-01T04:17:23.713Z,19.53
2022-08-01T04:19:50.661Z,19.44
2022-08-01T04:22:17.338Z,19.15
2022-08-01T04:24:56.415Z,19.10
2022-08-01T04:27:50.100Z,19.34
2022-08-01T04:30:18.554Z,19.01
2022-08-01T04:32:47.987Z,19.01
2022-08-01T04:35:23.046Z,19.31
2022-08-01T04:38:07.118Z,19.71
2022-08-01T04:40:37.123Z,19.57
2022-08-01T04:43:04.214Z,19.69
2022-08-01T04:45:33.519Z,19.58
2022-08-01T04:48:01.231Z,19.73
2022-08-01T04:50:28.261Z,19.43
2022-08-01T04:52:54.683Z,19.28
2022-08-01T04:55:21.243Z,19.15
2022-08-01T04:57:49.702Z,19.24
2022-08-01T05:00:17.526Z,19.31
2022-08-01T05:02:44.423Z,19.37
2022-08-01T05:05:11.584Z,19.67
2022-08-01T05:07:44.342Z,19.79
2022-08-01T05:10:11.782Z,20.24
2022-08-01T05:12:38.211Z,20.72
2022-08-01T05:15:05.275Z,21.49
2022-08-01T05:17:32.616Z,22.20
2022-08-01T05:19:59.111Z,22.92
2022-08-01T05:22:26.488Z,23.70
2022-08-01T05:24:53.653Z,24.05
2022-08-01T05:27:20.641Z,24.03
2022-08-01T05:29:48.088Z,23.78
2022-08-01T05:32:14.731Z,23.41
2022-08-01T05:34:41.131Z,23.11
2022-08-01T05:37:08.398Z,22.92
2022-08-01T05:39:34.943Z,22.66
2022-08-01T05:42:01.424Z,22.64
2022-08-01T05:44:27.989Z,22.62
2022-08-01T05:46:54.600Z,22.15
2022-08-01T05:49:21.150Z,21.85
2022-08-01T05:51:47.591Z,21.72
2022-08-01T05:54:14.115Z,21.82
2022-08-01T05:56:40.551Z,22.03
2022-08-01T05:59:07.196Z,22.63
2022-08-01T06:01:33.857Z,22.81
2022-08-01T06:04:00.240Z,23.00
2022-08-01T06:06:26.740Z,23.24
2022-08-01T06:08:53.140Z,23.42
2022-08-01T06:11:19.737Z,23.88
2022-08-01T06:13:48.784Z,24.13
2022-08-01T06:16:15.974Z,23.78
2022-08-01T06:18:42.397Z,23.89
2022-08-01T06:21:09.007Z,23.63
2022-08-01T06:23:35.538Z,23.79
2022-08-01T06:26:02.068Z,24.16
2022-08-01T06:28:29.105Z,24.55
2022-08-01T06:30:55.602Z,24.79
2022-08-01T06:33:22.029Z,24.71
2022-08-01T06:35:48.448Z,24.70
2022-08-01T06:38:14.961Z,25.00
2022-08-01T06:40:41.438Z,24.77
2022-08-01T06:43:07.931Z,24.84
2022-08-01T06:45:34.367Z,24.96
2022-08-01T06:48:00.837Z,25.26
2022-08-01T06:50:27.268Z,25.50
2022-08-01T06:52:53.714Z,25.58
2022-08-01T06:55:20.759Z,25.92
2022-08-01T06:57:53.516Z,25.51
2022-08-01T07:00:23.468Z,26.15
2022-08-01T07:02:54.633Z,25.75
2022-08-01T07:05:22.102Z,25.77
2022-08-01T07:07:48.736Z,25.74
2022-08-01T07:10:15.167Z,25.88
2022-08-01T07:12:42.007Z,25.72
2022-08-01T07:15:10.022Z,25.60
2022-08-01T07:17:40.777Z,25.66
2022-08-01T07:20:12.041Z,25.26
2022-08-01T07:22:40.535Z,25.19
2022-08-01T07:25:08.772Z,25.99
2022-08-01T07:27:35.867Z,25.75
2022-08-01T07:30:02.458Z,25.56
2022-08-01T07:32:30.252Z,25.87
2022-08-01T07:34:57.132Z,26.07
2022-08-01T07:37:42.178Z,26.36
2022-08-01T07:40:11.960Z,26.14
2022-08-01T07:42:38.973Z,26.80
2022-08-01T07:45:05.883Z,27.09
2022-08-01T07:47:32.325Z,27.00
2022-08-01T07:50:03.261Z,26.90
2022-08-01T07:52:31.150Z,26.66
2022-08-01T07:54:58.723Z,26.37
2022-08-01T07:57:25.467Z,26.43
2022-08-01T07:59:52.595Z,26.23
2022-08-01T08:02:19.164Z,26.12
2022-08-01T08:04:48.889Z,26.50
2022-08-01T08:07:16.003Z,25.71
2022-08-01T08:09:42.507Z,25.79
2022-08-01T08:12:09.407Z,25.97
2022-08-01T08:14:36.695Z,25.89
2022-08-01T08:17:03.192Z,26.06
2022-08-01T08:19:37.471Z,26.15
2022-08-01T08:22:05.529Z,26.41
2022-08-01T08:24:32.276Z,25.88
2022-08-01T08:26:59.889Z,26.35
2022-08-01T08:29:27.991Z,26.71
2022-08-01T08:31:55.767Z,26.62
2022-08-01T08:34:24.239Z,26.38
2022-08-01T08:36:51.002Z,27.03
2022-08-01T08:39:19.930Z,27.11
2022-08-01T08:41:49.613Z,26.89
2022-08-01T08:44:17.066Z,26.71
2022-08-01T08:46:46.120Z,26.64
2022-08-01T08:49:16.141Z,27.22
2022-08-01T08:51:44.814Z,27.11
2022-08-01T08:54:13.695Z,26.89
2022-08-01T08:56:41.197Z,27.53
2022-08-01T08:59:07.637Z,27.69
2022-08-01T09:01:35.821Z,28.04
2022-08-01T09:04:04.539Z,27.76
2022-08-01T09:06:32.925Z,27.55
2022-08-01T09:09:00.442Z,27.71
2022-08-01T09:11:26.988Z,28.08
2022-08-01T09:14:16.304Z,27.49
2022-08-01T09:16:48.565Z,27.33
2022-08-01T09:19:40.603Z,27.60
2022-08-01T09:22:08.694Z,27.52
2022-08-01T09:24:36.667Z,27.38
2022-08-01T09:27:17.959Z,28.09
2022-08-01T09:29:49.928Z,27.59
2022-08-01T09:32:34.251Z,27.61
2022-08-01T09:35:30.975Z,27.89
2022-08-01T09:38:20.261Z,27.57
2022-08-01T09:40:58.651Z,28.04
2022-08-01T09:43:31.778Z,27.58
2022-08-01T09:45:59.923Z,28.41
2022-08-01T09:48:29.631Z,28.24
2022-08-01T09:51:04.190Z,28.32
2022-08-01T09:53:52.489Z,28.28
2022-08-01T09:56:22.520Z,27.79
2022-08-01T09:58:58.430Z,27.82
2022-08-01T10:01:26.973Z,27.68
2022-08-01T10:04:28.898Z,27.72
2022-08-01T10:07:06.353Z,28.38
2022-08-01T10:09:40.317Z,27.77
2022-08-01T10:12:09.161Z,28.19
2022-08-01T10:14:46.353Z,28.07
2022-08-01T10:17:19.853Z,27.80
2022-08-01T10:19:47.969Z,27.89
2022-08-01T10:22:17.610Z,28.02
2022-08-01T10:24:48.131Z,27.99
2022-08-01T10:27:21.656Z,27.68
2022-08-01T10:30:05.419Z,27.94
2022-08-01T10:32:36.566Z,28.01
2022-08-01T10:35:14.785Z,28.37
2022-08-01T10:37:52.193Z,28.25
2022-08-01T10:40:30.314Z,28.66
2022-08-01T10:42:58.714Z,28.66
2022-08-01T10:45:30.360Z,29.70
2022-08-01T10:48:00.029Z,28.92
2022-08-01T10:50:50.225Z,29.55
2022-08-01T10:53:24.071Z,29.77
2022-08-01T10:55:57.275Z,29.01
2022-08-01T10:58:42.873Z,29.19
2022-08-01T11:01:29.926Z,29.12
2022-08-01T11:04:01.073Z,28.82
2022-08-01T11:06:56.325Z,29.41
2022-08-01T11:09:36.966Z,29.58
2022-08-01T11:12:23.025Z,29.53
2022-08-01T11:14:59.439Z,29.90
2022-08-01T11:17:32.441Z,30.06
2022-08-01T11:20:15.660Z,29.45
2022-08-01T11:23:02.914Z,30.40
2022-08-01T11:26:06.166Z,30.59
2022-08-01T11:28:37.086Z,30.42
2022-08-01T11:31:11.560Z,30.28
2022-08-01T11:33:46.434Z,29.87
2022-08-01T11:36:48.743Z,29.89
2022-08-01T11:39:13.114Z,30.27
2022-08-01T11:41:41.769Z,30.48
2022-08-01T11:44:15.804Z,30.40
2022-08-01T11:47:09.094Z,29.86
2022-08-01T11:49:45.261Z,30.32
2022-08-01T11:52:30.470Z,29.70
2022-08-01T11:55:05.513Z,29.26
2022-08-01T11:57:38.119Z,29.42
2022-08-01T12:00:18.635Z,29.36
2022-08-01T12:02:47.244Z,30.34
2022-08-01T12:05:18.917Z,30.12
2022-08-01T12:07:50.094Z,30.20
2022-08-01T12:10:19.462Z,30.75
2022-08-01T12:12:51.683Z,30.19
2022-08-01T12:15:19.967Z,30.79
2022-08-01T12:17:58.915Z,30.80
2022-08-01T12:20:33.683Z,30.92
2022-08-01T12:23:02.833Z,30.64
2022-08-01T12:25:29.708Z,30.36
2022-08-01T12:28:03.736Z,29.94
2022-08-01T12:30:36.217Z,30.35
2022-08-01T12:33:05.881Z,30.38
2022-08-01T12:35:33.091Z,30.11
2022-08-01T12:38:05.928Z,30.37
2022-08-01T12:40:35.446Z,30.36
2022-08-01T12:43:04.875Z,30.70
2022-08-01T12:45:40.659Z,30.25
2022-08-01T12:48:21.482Z,30.67
2022-08-01T12:50:53.250Z,30.75
2022-08-01T12:53:21.609Z,30.35
2022-08-01T12:55:59.170Z,30.75
2022-08-01T12:58:33.486Z,30.72
2022-08-01T13:01:14.276Z,30.45
2022-08-01T13:03:41.340Z,30.96
2022-08-01T13:06:16.161Z,30.83
2022-08-01T13:08:43.614Z,30.60
2022-08-01T13:11:15.652Z,30.78
2022-08-01T13:13:43.741Z,30.58
2022-08-01T13:16:12.349Z,30.24
2022-08-01T13:18:51.624Z,30.16
2022-08-01T13:21:23.863Z,30.52
2022-08-01T13:24:11.907Z,30.22
2022-08-01T13:26:46.987Z,30.29
2022-08-01T13:29:15.580Z,29.91
2022-08-01T13:31:42.587Z,30.05
2022-08-01T13:34:09.446Z,30.43
2022-08-01T13:36:37.060Z,30.20
2022-08-01T13:39:23.605Z,30.27
2022-08-01T13:41:50.062Z,30.20
2022-08-01T13:44:16.769Z,30.38
2022-08-01T13:46:49.703Z,29.94
2022-08-01T13:49:19.027Z,30.36
2022-08-01T13:51:47.259Z,30.04
2022-08-01T13:54:13.690Z,29.94
2022-08-01T13:56:40.141Z,30.06
2022-08-01T13:59:07.510Z,29.87
2022-08-01T14:01:34.952Z,29.73
2022-08-01T14:04:02.000Z,29.45
2022-08-01T14:06:28.635Z,29.51
2022-08-01T14:08:55.057Z,29.70
2022-08-01T14:11:21.575Z,29.18
2022-08-01T14:13:48.063Z,29.15
2022-08-01T14:16:15.451Z,28.97
2022-08-01T14:18:42.159Z,28.91
2022-08-01T14:21:10.958Z,28.68
2022-08-01T14:23:37.410Z,28.68
2022-08-01T14:26:09.708Z,28.97
2022-08-01T14:28:39.300Z,28.86
2022-08-01T14:31:07.122Z,28.67
2022-08-01T14:33:34.474Z,28.84
2022-08-01T14:36:05.203Z,28.91
2022-08-01T14:38:34.526Z,29.02
2022-08-01T14:41:03.628Z,29.06
2022-08-01T14:43:33.637Z,29.30
2022-08-01T14:46:01.611Z,29.04
2022-08-01T14:48:28.160Z,28.96
2022-08-01T14:50:56.708Z,29.13
2022-08-01T14:53:23.122Z,29.06
2022-08-01T14:55:49.577Z,29.05
2022-08-01T14:58:15.986Z,29.22
2022-08-01T15:00:42.598Z,29.39
2022-08-01T15:03:09.176Z,29.14
2022-08-01T15:05:36.687Z,29.33
2022-08-01T15:08:04.683Z,29.26
2022-08-01T15:10:33.071Z,29.29
2022-08-01T15:13:00.995Z,29.03
2022-08-01T15:15:28.324Z,29.02
2022-08-01T15:17:54.786Z,28.99
2022-08-01T15:20:21.362Z,29.12
2022-08-01T15:22:48.725Z,29.14
2022-08-01T15:25:15.443Z,29.28
2022-08-01T15:27:42.076Z,29.40
2022-08-01T15:30:08.871Z,29.44
2022-08-01T15:32:35.392Z,29.42
2022-08-01T15:35:01.807Z,29.57
2022-08-01T15:37:28.289Z,29.78
2022-08-01T15:39:56.390Z,29.77
2022-08-01T15:42:25.329Z,29.56
2022-08-01T15:44:53.222Z,29.71
2022-08-01T15:47:19.695Z,29.70
2022-08-01T15:49:46.400Z,29.52
2022-08-01T15:52:21.931Z,29.53
2022-08-01T15:54:49.940Z,29.39
2022-08-01T15:57:16.567Z,29.42
2022-08-01T15:59:42.993Z,29.02
2022-08-01T16:02:09.899Z,29.08
2022-08-01T16:04:38.784Z,28.95
2022-08-01T16:07:06.149Z,29.12
2022-08-01T16:09:32.582Z,28.97
2022-08-01T16:11:59.024Z,28.93
2022-08-01T16:14:25.502Z,28.93
2022-08-01T16:16:51.917Z,28.66
2022-08-01T16:19:19.402Z,28.70
2022-08-01T16:21:47.831Z,28.76
2022-08-01T16:24:14.536Z,28.36
2022-08-01T16:26:41.165Z,28.72
2022-08-01T16:29:07.569Z,28.72
2022-08-01T16:31:36.796Z,28.71
2022-08-01T16:34:10.243Z,28.75
2022-08-01T16:36:40.284Z,28.74
2022-08-01T16:39:07.673Z,28.49
2022-08-01T16:41:37.763Z,28.42
2022-08-01T16:44:04.443Z,28.54
2022-08-01T16:46:33.889Z,28.32
2022-08-01T16:49:03.777Z,28.23
2022-08-01T16:51:32.536Z,28.25
2022-08-01T16:53:59.733Z,28.19
2022-08-01T16:56:26.322Z,28.32
2022-08-01T16:58:52.869Z,28.14
2022-08-01T17:01:59.906Z,27.89
2022-08-01T17:04:06.182Z,28.04
2022-08-01T17:06:32.660Z,28.04
2022-08-01T17:08:59.227Z,28.06
2022-08-01T17:11:25.768Z,27.88
2022-08-01T17:13:52.380Z,27.83
2022-08-01T17:16:18.854Z,27.77
2022-08-01T17:18:45.478Z,27.96
2022-08-01T17:21:12.035Z,27.95
2022-08-01T17:23:38.540Z,27.58
2022-08-01T17:26:04.958Z,27.50
2022-08-01T17:28:31.457Z,27.81
2022-08-01T17:30:58.247Z,27.52
2022-08-01T17:33:24.796Z,27.32
2022-08-01T17:36:11.239Z,27.52
2022-08-01T17:38:37.652Z,27.58
2022-08-01T17:41:04.114Z,27.46
2022-08-01T17:43:30.577Z,27.63
2022-08-01T17:45:57.550Z,27.50
2022-08-01T17:48:24.257Z,27.71
2022-08-01T17:50:50.708Z,27.66
2022-08-01T17:53:20.972Z,27.49
2022-08-01T17:55:55.595Z,27.64
2022-08-01T17:58:49.115Z,27.72
2022-08-01T18:01:15.469Z,27.68
2022-08-01T18:03:42.325Z,27.76
2022-08-01T18:06:10.309Z,27.81
2022-08-01T18:08:40.164Z,27.80
2022-08-01T18:11:06.626Z,27.67
2022-08-01T18:13:33.707Z,27.60
2022-08-01T18:16:00.662Z,27.57
2022-08-01T18:18:33.396Z,27.58
2022-08-01T18:21:01.380Z,27.41
2022-08-01T18:23:27.971Z,27.23
2022-08-01T18:25:54.522Z,27.25
2022-08-01T18:28:31.589Z,27.23
2022-08-01T18:31:02.039Z,27.26
2022-08-01T18:33:28.583Z,27.12
2022-08-01T18:35:56.194Z,27.18
2022-08-01T18:38:29.221Z,27.13
2022-08-01T18:40:55.958Z,26.94
2022-08-01T18:43:22.433Z,26.77
2022-08-01T18:45:48.907Z,27.00
2022-08-01T18:48:15.528Z,26.69
2022-08-01T18:50:41.961Z,26.86
2022-08-01T18:53:08.436Z,26.72
2022-08-01T18:55:34.879Z,26.88
2022-08-01T18:58:01.263Z,26.77
2022-08-01T19:00:27.786Z,26.85
2022-08-01T19:02:55.141Z,26.79
2022-08-01T19:05:21.550Z,26.57
2022-08-01T19:08:06.670Z,26.50
2022-08-01T19:10:35.655Z,26.61
2022-08-01T19:13:02.889Z,26.39
2022-08-01T19:15:29.375Z,26.46
2022-08-01T19:17:55.772Z,26.31
2022-08-01T19:20:22.176Z,26.09
2022-08-01T19:22:48.678Z,25.97
2022-08-01T19:25:15.728Z,25.71
2022-08-01T19:27:47.801Z,25.64
2022-08-01T19:30:15.235Z,25.84
2022-08-01T19:32:46.835Z,25.63
2022-08-01T19:35:15.230Z,25.62
2022-08-01T19:37:48.668Z,25.63
2022-08-01T19:40:26.164Z,25.45
2022-08-01T19:42:54.992Z,25.34
2022-08-01T19:45:22.159Z,25.22
2022-08-01T19:47:56.505Z,25.20
2022-08-01T19:50:24.049Z,25.06
2022-08-01T19:52:52.780Z,24.94
2022-08-01T19:55:19.609Z,24.85
2022-08-01T19:58:16.978Z,24.88
2022-08-01T20:00:40.228Z,24.86
2022-08-01T20:03:07.879Z,24.96
2022-08-01T20:05:36.361Z,24.69
2022-08-01T20:08:03.664Z,24.75
2022-08-01T20:10:32.274Z,24.58
2022-08-01T20:12:58.754Z,24.57
2022-08-01T20:15:25.446Z,24.61
2022-08-01T20:17:51.989Z,24.48
2022-08-01T20:20:18.458Z,24.48
2022-08-01T20:22:46.724Z,24.66
2022-08-01T20:25:13.359Z,24.51
2022-08-01T20:27:46.508Z,24.55
2022-08-01T20:30:13.337Z,24.67
2022-08-01T20:32:40.824Z,24.59
2022-08-01T20:35:08.017Z,24.79
2022-08-01T20:38:06.283Z,24.45
2022-08-01T20:40:27.925Z,24.30
2022-08-01T20:42:55.847Z,24.10
2022-08-01T20:45:24.187Z,23.86
2022-08-01T20:47:51.886Z,23.78
2022-08-01T20:50:53.638Z,23.67
2022-08-01T20:53:22.671Z,23.61
2022-08-01T20:55:54.437Z,23.57
2022-08-01T20:58:33.794Z,23.57
2022-08-01T21:01:03.054Z,23.58
2022-08-01T21:03:44.251Z,23.31
2022-08-01T21:06:17.257Z,23.10
2022-08-01T21:08:47.590Z,23.04
2022-08-01T21:11:20.347Z,22.85
2022-08-01T21:13:50.937Z,23.06
2022-08-01T21:16:25.191Z,22.94
2022-08-01T21:19:16.773Z,22.74
2022-08-01T21:21:43.391Z,22.80
2022-08-01T21:24:16.539Z,22.74
2022-08-01T21:26:44.144Z,22.73
2022-08-01T21:29:11.850Z,22.62
2022-08-01T21:31:40.800Z,22.25
2022-08-01T21:34:08.162Z,22.26
2022-08-01T21:36:35.719Z,22.27
2022-08-01T21:39:04.611Z,22.13
2022-08-01T21:41:56.205Z,22.12
2022-08-01T21:44:20.632Z,21.93
2022-08-01T21:46:48.427Z,21.83
2022-08-01T21:49:15.069Z,21.74
2022-08-01T21:51:47.605Z,21.64
2022-08-01T21:54:41.271Z,21.37
2022-08-01T21:57:23.439Z,21.29
2022-08-01T22:00:08.908Z,21.25
2022-08-01T22:02:39.183Z,21.25
2022-08-01T22:05:11.316Z,21.16
2022-08-01T22:07:52.425Z,21.18
2022-08-01T22:10:20.233Z,21.10
2022-08-01T22:12:47.439Z,21.02
2022-08-01T22:15:14.583Z,20.89
2022-08-01T22:17:41.650Z,20.95
2022-08-01T22:20:09.195Z,20.91
2022-08-01T22:22:51.755Z,20.79
2022-08-01T22:25:20.547Z,20.91
2022-08-01T22:28:02.854Z,20.71
2022-08-01T22:30:35.033Z,20.55
2022-08-01T22:33:07.073Z,20.51
2022-08-01T22:35:44.432Z,20.54
2022-08-01T22:38:10.865Z,20.39
2022-08-01T22:40:40.295Z,20.39
2022-08-01T22:43:17.623Z,20.60
2022-08-01T22:46:29.113Z,20.60
2022-08-01T22:49:01.615Z,20.43
2022-08-01T22:51:54.917Z,20.24
2022-08-01T22:54:28.924Z,20.48
2022-08-01T22:56:57.161Z,20.41
2022-08-01T22:59:42.498Z,20.30
2022-08-01T23:02:14.503Z,20.21
2022-08-01T23:04:49.424Z,20.20
2022-08-01T23:07:22.778Z,20.25
2022-08-01T23:09:54.041Z,20.15
2022-08-01T23:12:23.354Z,20.12
2022-08-01T23:14:53.693Z,20.09
2022-08-01T23:17:27.021Z,19.91
2022-08-01T23:20:03.325Z,19.93
2022-08-01T23:22:32.443Z,19.88
2022-08-01T23:25:03.949Z,19.99
2022-08-01T23:28:03.679Z,19.68
2022-08-01T23:30:24.401Z,19.95
2022-08-01T23:32:50.939Z,19.73
2022-08-01T23:35:17.422Z,19.65
2022-08-01T23:37:44.012Z,19.39
2022-08-01T23:40:11.256Z,19.21
2022-08-01T23:42:37.907Z,19.33
2022-08-01T23:45:04.826Z,19.49
2022-08-01T23:47:31.277Z,19.78
2022-08-01T23:49:57.726Z,19.53
2022-08-01T23:52:24.376Z,19.44
2022-08-01T23:54:56.170Z,19.70
2022-08-01T23:57:23.641Z,19.99
2022-08-01T23:59:52.782Z,19.85
